Time;durP1;ratioP1;P1;durP2;ratioP2;P2;SDS_P1;SDS_P2;PMS_P1;PMS_P2;Temp;Humidity;BMP_temperature;BMP_pressure;BME280_temperature;BME280_humidity;BME280_pressure;Samples;Min_cycle;Max_cycle;Signal;HPM_P1;HPM_P2
2023/05/27 00:02:12;;;;;;;;;;;20.30;41.90;;;;;;5089212;28;19924;-58
2023/05/27 00:04:39;;;;;;;;;;;20.30;41.90;;;;;;5104337;28;19927;-59
2023/05/27 00:07:06;;;;;;;;;;;20.30;41.90;;;;;;5106482;28;20362;-59
2023/05/27 00:09:33;;;;;;;;;;;20.30;41.90;;;;;;5106539;28;19920;-58
2023/05/27 00:12:00;;;;;;;;;;;20.30;41.90;;;;;;5088672;28;20332;-59
2023/05/27 00:14:28;;;;;;;;;;;20.30;41.90;;;;;;5088910;28;20016;-59
2023/05/27 00:16:55;;;;;;;;;;;20.30;41.90;;;;;;5088748;28;19920;-59
2023/05/27 00:19:23;;;;;;;;;;;20.30;41.90;;;;;;5089447;28;19924;-59
2023/05/27 00:21:52;;;;;;;;;;;20.30;41.90;;;;;;5090393;28;19927;-59
2023/05/27 00:24:18;;;;;;;;;;;20.30;41.90;;;;;;5087362;28;19920;-59
2023/05/27 00:26:45;;;;;;;;;;;20.30;41.90;;;;;;5090200;28;20380;-59
2023/05/27 00:29:12;;;;;;;;;;;20.30;41.90;;;;;;5086346;28;20286;-59
2023/05/27 00:31:40;;;;;;;;;;;20.30;41.90;;;;;;5087828;28;19928;-59
2023/05/27 00:34:07;;;;;;;;;;;20.30;41.90;;;;;;5105877;28;19958;-59
2023/05/27 00:36:35;;;;;;;;;;;20.30;41.90;;;;;;5088886;28;19920;-59
2023/05/27 00:39:02;;;;;;;;;;;20.30;41.90;;;;;;5101518;28;19921;-59
2023/05/27 00:41:29;;;;;;;;;;;20.30;41.90;;;;;;5082610;28;19943;-58
2023/05/27 00:43:56;;;;;;;;;;;20.30;41.90;;;;;;5089925;28;19931;-59
2023/05/27 00:46:23;;;;;;;;;;;20.30;41.90;;;;;;5088091;28;20243;-59
2023/05/27 00:48:51;;;;;;;;;;;20.30;41.90;;;;;;5088674;28;19920;-59
2023/05/27 00:51:18;;;;;;;;;;;20.30;41.90;;;;;;5086757;28;19920;-59
2023/05/27 00:53:45;;;;;;;;;;;20.20;41.80;;;;;;5088423;28;20001;-59
2023/05/27 00:56:12;;;;;;;;;;;20.30;41.90;;;;;;5088607;28;20311;-59
2023/05/27 00:58:39;;;;;;;;;;;20.20;41.80;;;;;;5104238;28;19924;-60
2023/05/27 01:01:07;;;;;;;;;;;20.20;41.80;;;;;;5088207;28;19924;-59
2023/05/27 01:03:33;;;;;;;;;;;20.20;41.80;;;;;;5105438;28;19973;-59
2023/05/27 01:06:04;;;;;;;;;;;20.20;41.80;;;;;;5085542;28;19925;-59
2023/05/27 01:08:32;;;;;;;;;;;20.20;41.80;;;;;;5084926;28;20497;-59
2023/05/27 01:10:59;;;;;;;;;;;20.20;41.80;;;;;;5088523;28;19924;-59
2023/05/27 01:13:28;;;;;;;;;;;20.20;41.80;;;;;;5088042;28;19924;-59
2023/05/27 01:15:55;;;;;;;;;;;20.20;41.80;;;;;;5081358;28;19920;-59
2023/05/27 01:18:23;;;;;;;;;;;20.20;41.70;;;;;;5098029;28;19982;-59
2023/05/27 01:20:50;;;;;;;;;;;20.20;41.70;;;;;;5101865;28;19924;-59
2023/05/27 01:23:18;;;;;;;;;;;20.20;41.70;;;;;;5100530;28;19924;-59
2023/05/27 01:25:44;;;;;;;;;;;20.20;41.70;;;;;;5088075;28;19924;-59
2023/05/27 01:28:11;;;;;;;;;;;20.20;41.70;;;;;;5089072;28;19924;-59
2023/05/27 01:30:38;;;;;;;;;;;20.20;41.70;;;;;;5087771;28;20328;-59
2023/05/27 01:33:05;;;;;;;;;;;20.20;41.70;;;;;;5088009;28;20017;-59
2023/05/27 01:35:33;;;;;;;;;;;20.20;41.70;;;;;;5105643;28;19928;-59
2023/05/27 01:38:00;;;;;;;;;;;20.20;41.80;;;;;;5082349;28;19931;-59
2023/05/27 01:40:29;;;;;;;;;;;20.20;41.80;;;;;;5092437;28;19928;-59
2023/05/27 01:42:57;;;;;;;;;;;20.20;41.70;;;;;;5100968;28;19928;-59
2023/05/27 01:45:23;;;;;;;;;;;20.20;41.70;;;;;;5086769;28;19920;-59
2023/05/27 01:47:51;;;;;;;;;;;20.20;41.70;;;;;;5108998;28;19986;-59
2023/05/27 01:50:17;;;;;;;;;;;20.20;41.70;;;;;;5092395;28;19920;-59
2023/05/27 01:52:45;;;;;;;;;;;20.20;41.70;;;;;;5107396;28;19980;-59
2023/05/27 01:55:11;;;;;;;;;;;20.20;41.70;;;;;;5106613;28;19924;-59
2023/05/27 01:57:40;;;;;;;;;;;20.20;41.70;;;;;;5109090;28;20055;-59
2023/05/27 02:00:08;;;;;;;;;;;20.20;41.70;;;;;;5091665;28;19955;-59
2023/05/27 02:02:35;;;;;;;;;;;20.20;41.70;;;;;;5107407;28;19986;-59
2023/05/27 02:05:02;;;;;;;;;;;20.20;41.70;;;;;;5108809;28;19997;-59
2023/05/27 02:07:28;;;;;;;;;;;20.20;41.70;;;;;;5093223;28;19921;-60
2023/05/27 02:09:55;;;;;;;;;;;20.10;41.60;;;;;;5090660;28;19920;-59
2023/05/27 02:12:22;;;;;;;;;;;20.20;41.70;;;;;;5089694;28;19973;-59
2023/05/27 02:14:51;;;;;;;;;;;20.20;41.70;;;;;;5107983;28;19932;-59
2023/05/27 02:17:17;;;;;;;;;;;20.20;41.70;;;;;;5093067;28;19928;-59
2023/05/27 02:19:44;;;;;;;;;;;20.20;41.70;;;;;;5091178;28;19924;-59
2023/05/27 02:22:11;;;;;;;;;;;20.20;41.70;;;;;;5090158;28;19943;-58
2023/05/27 02:24:38;;;;;;;;;;;20.20;41.70;;;;;;5108529;28;19965;-59
2023/05/27 02:27:05;;;;;;;;;;;20.10;41.60;;;;;;5105274;28;19973;-59
2023/05/27 02:29:32;;;;;;;;;;;20.20;41.60;;;;;;5108294;28;19920;-59
2023/05/27 02:32:00;;;;;;;;;;;20.20;41.60;;;;;;5108657;28;19973;-59
2023/05/27 02:34:27;;;;;;;;;;;20.20;41.60;;;;;;5108440;28;19924;-59
2023/05/27 02:36:54;;;;;;;;;;;20.20;41.60;;;;;;5088984;28;19934;-59
2023/05/27 02:39:21;;;;;;;;;;;20.20;41.60;;;;;;5092784;28;19928;-58
2023/05/27 02:41:48;;;;;;;;;;;20.20;41.60;;;;;;5091284;28;19921;-59
2023/05/27 02:44:15;;;;;;;;;;;20.10;41.50;;;;;;5091255;28;19932;-59
2023/05/27 02:46:41;;;;;;;;;;;20.10;41.50;;;;;;5088512;28;19927;-60
2023/05/27 02:49:09;;;;;;;;;;;20.10;41.50;;;;;;5102520;28;19924;-59
2023/05/27 02:51:36;;;;;;;;;;;20.10;41.50;;;;;;5105613;28;19951;-59
2023/05/27 02:54:03;;;;;;;;;;;20.10;41.50;;;;;;5090201;28;19924;-59
2023/05/27 02:56:30;;;;;;;;;;;20.20;41.60;;;;;;5090405;28;19934;-59
2023/05/27 02:58:57;;;;;;;;;;;20.10;41.50;;;;;;5090345;28;19965;-59
2023/05/27 03:01:23;;;;;;;;;;;20.10;41.60;;;;;;5090753;28;19931;-59
2023/05/27 03:03:54;;;;;;;;;;;20.10;41.50;;;;;;5104790;27;19939;-58
2023/05/27 03:06:23;;;;;;;;;;;20.10;41.50;;;;;;5084041;28;20367;-58
2023/05/27 03:08:49;;;;;;;;;;;20.10;41.50;;;;;;5106882;28;19927;-59
2023/05/27 03:11:16;;;;;;;;;;;20.10;41.50;;;;;;5091097;28;19928;-58
2023/05/27 03:13:43;;;;;;;;;;;20.10;41.50;;;;;;5090265;28;19961;-58
2023/05/27 03:16:10;;;;;;;;;;;20.10;41.50;;;;;;5088946;28;19920;-58
2023/05/27 03:18:37;;;;;;;;;;;20.10;41.50;;;;;;5106291;28;19928;-59
2023/05/27 03:21:04;;;;;;;;;;;20.10;41.50;;;;;;5090739;28;19930;-59
2023/05/27 03:23:32;;;;;;;;;;;20.10;41.50;;;;;;5107570;28;19928;-59
2023/05/27 03:25:59;;;;;;;;;;;20.10;41.40;;;;;;5105513;28;19931;-59
2023/05/27 03:28:26;;;;;;;;;;;20.10;41.50;;;;;;5091616;28;20069;-59
2023/05/27 03:30:55;;;;;;;;;;;20.10;41.40;;;;;;5106732;28;19924;-59
2023/05/27 03:33:22;;;;;;;;;;;20.10;41.50;;;;;;5091706;28;19951;-58
2023/05/27 03:35:49;;;;;;;;;;;20.10;41.50;;;;;;5087362;28;19932;-59
2023/05/27 03:38:16;;;;;;;;;;;20.10;41.50;;;;;;5088417;28;19949;-59
2023/05/27 03:40:44;;;;;;;;;;;20.10;42.00;;;;;;5089731;28;19924;-59
2023/05/27 03:43:11;;;;;;;;;;;20.10;41.50;;;;;;5106025;28;20402;-59
2023/05/27 03:45:38;;;;;;;;;;;20.10;41.40;;;;;;5106005;28;19928;-59
2023/05/27 03:48:05;;;;;;;;;;;20.10;41.40;;;;;;5090246;28;19920;-59
2023/05/27 03:50:32;;;;;;;;;;;20.10;41.50;;;;;;5103615;28;19952;-58
2023/05/27 03:52:59;;;;;;;;;;;20.10;42.00;;;;;;5104792;28;19932;-58
2023/05/27 03:55:26;;;;;;;;;;;20.10;41.40;;;;;;5083023;28;19920;-58
2023/05/27 03:57:54;;;;;;;;;;;20.10;41.40;;;;;;5097840;28;19998;-60
2023/05/27 04:00:21;;;;;;;;;;;20.10;41.40;;;;;;5083600;28;19927;-60
2023/05/27 04:02:48;;;;;;;;;;;20.10;41.40;;;;;;5103762;28;19924;-59
2023/05/27 04:05:16;;;;;;;;;;;20.10;41.40;;;;;;5106811;28;20336;-60
2023/05/27 04:07:43;;;;;;;;;;;20.10;41.40;;;;;;5089286;28;19974;-60
2023/05/27 04:10:11;;;;;;;;;;;20.10;41.40;;;;;;5090961;28;19955;-60
2023/05/27 04:12:40;;;;;;;;;;;20.10;41.40;;;;;;5089200;28;19969;-58
2023/05/27 04:15:09;;;;;;;;;;;20.10;41.40;;;;;;5106433;28;19943;-60
2023/05/27 04:17:36;;;;;;;;;;;20.10;41.40;;;;;;5081184;28;19933;-58
2023/05/27 04:20:11;;;;;;;;;;;20.10;41.40;;;;;;5086084;28;19987;-58
2023/05/27 04:22:38;;;;;;;;;;;20.10;41.40;;;;;;5089543;28;19924;-60
2023/05/27 04:25:05;;;;;;;;;;;20.10;41.40;;;;;;5105206;28;19920;-58
2023/05/27 04:27:32;;;;;;;;;;;20.10;41.40;;;;;;5089473;28;19932;-58
2023/05/27 04:29:59;;;;;;;;;;;20.10;41.40;;;;;;5087914;28;19924;-59
2023/05/27 04:32:27;;;;;;;;;;;20.10;41.40;;;;;;5089174;28;19946;-59
2023/05/27 04:34:54;;;;;;;;;;;20.10;42.00;;;;;;5085399;28;19928;-59
2023/05/27 04:37:21;;;;;;;;;;;20.10;41.40;;;;;;5101535;28;19920;-59
2023/05/27 04:39:48;;;;;;;;;;;20.10;41.40;;;;;;5089414;28;19943;-59
2023/05/27 04:42:15;;;;;;;;;;;20.10;41.40;;;;;;5088445;28;19924;-60
2023/05/27 04:44:41;;;;;;;;;;;20.10;41.50;;;;;;5104128;28;19927;-59
2023/05/27 04:47:09;;;;;;;;;;;20.10;41.40;;;;;;5090498;28;19928;-60
2023/05/27 04:49:37;;;;;;;;;;;20.10;41.50;;;;;;5087825;28;19973;-60
2023/05/27 04:52:06;;;;;;;;;;;20.10;41.50;;;;;;5081379;28;19920;-58
2023/05/27 04:54:33;;;;;;;;;;;20.10;41.50;;;;;;5101301;28;19924;-58
2023/05/27 04:57:00;;;;;;;;;;;20.10;41.50;;;;;;5084379;28;19920;-59
2023/05/27 04:59:35;;;;;;;;;;;20.10;41.50;;;;;;5086204;28;19951;-58
2023/05/27 05:02:10;;;;;;;;;;;20.10;41.50;;;;;;5098511;28;19924;-59
2023/05/27 05:04:39;;;;;;;;;;;20.10;41.50;;;;;;5088729;28;20358;-59
2023/05/27 05:07:06;;;;;;;;;;;20.10;41.50;;;;;;5088774;28;20302;-59
2023/05/27 05:09:33;;;;;;;;;;;20.10;41.50;;;;;;5089328;28;19920;-59
2023/05/27 05:12:02;;;;;;;;;;;20.10;41.50;;;;;;5103118;28;19920;-59
2023/05/27 05:14:29;;;;;;;;;;;20.10;41.50;;;;;;5088599;28;19924;-59
2023/05/27 05:16:56;;;;;;;;;;;20.10;41.50;;;;;;5088221;28;19974;-59
2023/05/27 05:19:23;;;;;;;;;;;20.10;41.50;;;;;;5089704;28;19993;-59
2023/05/27 05:21:51;;;;;;;;;;;20.10;41.60;;;;;;5086280;28;19932;-59
2023/05/27 05:24:18;;;;;;;;;;;20.10;41.60;;;;;;5100830;28;19970;-59
2023/05/27 05:26:45;;;;;;;;;;;20.10;41.50;;;;;;5089495;28;19928;-59
2023/05/27 05:29:12;;;;;;;;;;;20.10;41.60;;;;;;5087230;28;19924;-59
2023/05/27 05:31:39;;;;;;;;;;;20.10;41.60;;;;;;5103366;28;19924;-60
2023/05/27 05:34:05;;;;;;;;;;;20.10;41.60;;;;;;5089314;28;19965;-60
2023/05/27 05:36:33;;;;;;;;;;;20.10;41.60;;;;;;5097057;28;20015;-60
2023/05/27 05:39:02;;;;;;;;;;;20.10;41.60;;;;;;5089489;28;19924;-59
2023/05/27 05:41:29;;;;;;;;;;;20.10;41.60;;;;;;5088664;28;19931;-60
2023/05/27 05:43:56;;;;;;;;;;;20.10;41.60;;;;;;5096751;28;19920;-60
2023/05/27 05:46:23;;;;;;;;;;;20.10;41.60;;;;;;5089052;28;19968;-58
2023/05/27 05:48:51;;;;;;;;;;;20.10;41.60;;;;;;5088016;28;19931;-58
2023/05/27 05:51:18;;;;;;;;;;;20.10;41.60;;;;;;5086988;28;19927;-58
2023/05/27 05:53:44;;;;;;;;;;;20.10;41.60;;;;;;5104321;28;19923;-58
2023/05/27 05:56:13;;;;;;;;;;;20.10;41.70;;;;;;5099255;28;19921;-60
2023/05/27 05:58:40;;;;;;;;;;;20.10;41.70;;;;;;5102726;28;19924;-58
2023/05/27 06:01:06;;;;;;;;;;;20.10;41.70;;;;;;5087415;28;19920;-59
2023/05/27 06:03:33;;;;;;;;;;;20.10;41.70;;;;;;5085670;28;19920;-58
2023/05/27 06:06:00;;;;;;;;;;;20.10;41.70;;;;;;5084724;28;20184;-59
2023/05/27 06:08:27;;;;;;;;;;;20.10;41.70;;;;;;5104963;28;20008;-58
2023/05/27 06:10:53;;;;;;;;;;;20.10;41.70;;;;;;5088240;28;20233;-59
2023/05/27 06:13:21;;;;;;;;;;;20.10;41.70;;;;;;5104740;28;19931;-59
2023/05/27 06:15:48;;;;;;;;;;;20.10;41.80;;;;;;5104273;28;19989;-60
2023/05/27 06:18:15;;;;;;;;;;;20.10;41.80;;;;;;5103764;28;19965;-58
2023/05/27 06:20:42;;;;;;;;;;;20.10;41.80;;;;;;5104337;28;19921;-58
2023/05/27 06:23:09;;;;;;;;;;;20.10;41.80;;;;;;5091776;28;19977;-59
2023/05/27 06:25:35;;;;;;;;;;;20.10;41.80;;;;;;5108440;28;19942;-59
2023/05/27 06:28:02;;;;;;;;;;;20.10;41.80;;;;;;5106504;28;19954;-59
2023/05/27 06:30:31;;;;;;;;;;;20.10;41.80;;;;;;5108242;28;19920;-58
2023/05/27 06:32:58;;;;;;;;;;;20.10;41.80;;;;;;5108438;28;19924;-59
2023/05/27 06:35:25;;;;;;;;;;;20.10;41.90;;;;;;5091515;28;20034;-60
2023/05/27 06:37:52;;;;;;;;;;;20.10;41.80;;;;;;5102899;28;19959;-59
2023/05/27 06:40:18;;;;;;;;;;;20.10;41.80;;;;;;5090986;28;19961;-59
2023/05/27 06:42:45;;;;;;;;;;;20.10;41.90;;;;;;5092364;28;19996;-59
2023/05/27 06:45:12;;;;;;;;;;;20.10;41.90;;;;;;5091082;28;19920;-59
2023/05/27 06:47:40;;;;;;;;;;;20.10;41.90;;;;;;5090498;28;19969;-59
2023/05/27 06:50:07;;;;;;;;;;;20.20;42.00;;;;;;5108098;28;19989;-60
2023/05/27 06:52:34;;;;;;;;;;;20.10;41.90;;;;;;5088457;28;19951;-58
2023/05/27 06:55:01;;;;;;;;;;;20.20;42.00;;;;;;5090604;28;19924;-58
2023/05/27 06:57:28;;;;;;;;;;;20.20;42.00;;;;;;5092799;28;19927;-59
2023/05/27 06:59:56;;;;;;;;;;;20.20;42.10;;;;;;5098914;28;19943;-59
2023/05/27 07:02:23;;;;;;;;;;;20.20;42.00;;;;;;5084379;28;19948;-59
2023/05/27 07:04:53;;;;;;;;;;;20.20;42.00;;;;;;5091347;28;19920;-59
2023/05/27 07:07:20;;;;;;;;;;;20.20;42.10;;;;;;5084883;28;19932;-59
2023/05/27 07:09:47;;;;;;;;;;;20.20;42.10;;;;;;5088000;28;19920;-59
2023/05/27 07:12:13;;;;;;;;;;;20.20;42.00;;;;;;5107722;28;19924;-60
2023/05/27 07:14:40;;;;;;;;;;;20.20;42.10;;;;;;5092804;28;20320;-59
2023/05/27 07:17:07;;;;;;;;;;;20.20;42.10;;;;;;5092626;28;19942;-59
2023/05/27 07:19:34;;;;;;;;;;;20.20;42.10;;;;;;5105656;28;19942;-59
2023/05/27 07:22:02;;;;;;;;;;;20.20;42.10;;;;;;5107093;28;19931;-59
2023/05/27 07:24:29;;;;;;;;;;;20.20;42.10;;;;;;5090479;28;19920;-59
2023/05/27 07:26:56;;;;;;;;;;;20.20;42.10;;;;;;5082132;28;19932;-59
2023/05/27 07:29:23;;;;;;;;;;;20.20;42.10;;;;;;5091792;28;19920;-59
2023/05/27 07:31:49;;;;;;;;;;;20.20;42.10;;;;;;5090057;28;20378;-59
2023/05/27 07:34:16;;;;;;;;;;;20.20;42.10;;;;;;5091728;28;19932;-60
2023/05/27 07:36:43;;;;;;;;;;;20.20;42.20;;;;;;5105772;28;19950;-59
2023/05/27 07:39:12;;;;;;;;;;;20.20;42.20;;;;;;5090120;28;19923;-59
2023/05/27 07:41:38;;;;;;;;;;;20.30;42.30;;;;;;5090512;28;19946;-58
2023/05/27 07:44:05;;;;;;;;;;;20.30;42.30;;;;;;5090518;28;19924;-59
2023/05/27 07:46:32;;;;;;;;;;;20.30;42.30;;;;;;5105579;28;20345;-59
2023/05/27 07:48:59;;;;;;;;;;;20.30;42.30;;;;;;5082662;28;19919;-59
2023/05/27 07:51:25;;;;;;;;;;;20.30;42.30;;;;;;5091395;28;19934;-60
2023/05/27 07:53:52;;;;;;;;;;;20.30;42.30;;;;;;5088240;28;19920;-59
2023/05/27 07:56:20;;;;;;;;;;;20.30;42.40;;;;;;5090946;28;19969;-60
2023/05/27 07:58:47;;;;;;;;;;;20.30;42.40;;;;;;5087335;28;19920;-59
2023/05/27 08:01:14;;;;;;;;;;;20.30;42.40;;;;;;5102234;28;20375;-59
2023/05/27 08:03:41;;;;;;;;;;;20.30;42.50;;;;;;5103666;28;19974;-59
2023/05/27 08:06:07;;;;;;;;;;;20.30;42.50;;;;;;5104375;28;19920;-59
2023/05/27 08:08:34;;;;;;;;;;;20.30;42.60;;;;;;5105394;28;19920;-60
2023/05/27 08:11:01;;;;;;;;;;;20.30;42.60;;;;;;5102448;28;19966;-59
2023/05/27 08:13:29;;;;;;;;;;;20.30;42.60;;;;;;5099561;28;20060;-59
2023/05/27 08:15:56;;;;;;;;;;;20.40;42.70;;;;;;5103545;28;19928;-59
2023/05/27 08:18:23;;;;;;;;;;;20.40;42.70;;;;;;5105621;28;19924;-59
2023/05/27 08:20:50;;;;;;;;;;;20.40;42.70;;;;;;5104432;27;19920;-59
2023/05/27 08:23:16;;;;;;;;;;;20.40;42.70;;;;;;5080751;28;19920;-59
2023/05/27 08:25:43;;;;;;;;;;;20.30;42.60;;;;;;5087045;28;19924;-59
2023/05/27 08:28:11;;;;;;;;;;;20.30;42.60;;;;;;5104190;28;19920;-59
2023/05/27 08:30:39;;;;;;;;;;;20.40;42.70;;;;;;5104831;28;19927;-58
2023/05/27 08:33:06;;;;;;;;;;;20.40;42.70;;;;;;5104547;28;20411;-58
2023/05/27 08:35:33;;;;;;;;;;;20.40;42.70;;;;;;5105836;28;20021;-59
2023/05/27 08:38:00;;;;;;;;;;;20.40;42.70;;;;;;5108652;28;19920;-59
2023/05/27 08:40:27;;;;;;;;;;;20.40;42.70;;;;;;5105073;28;19970;-59
2023/05/27 08:42:53;;;;;;;;;;;20.40;42.70;;;;;;5086402;28;19931;-59
2023/05/27 08:45:23;;;;;;;;;;;20.40;42.70;;;;;;5104634;28;19932;-59
2023/05/27 08:47:52;;;;;;;;;;;20.40;42.80;;;;;;5087773;28;19928;-59
2023/05/27 08:50:19;;;;;;;;;;;20.40;42.80;;;;;;5089225;28;20393;-59
2023/05/27 08:52:46;;;;;;;;;;;20.40;42.80;;;;;;5079285;28;19932;-59
2023/05/27 08:55:15;;;;;;;;;;;20.40;42.80;;;;;;5099212;28;19974;-59
2023/05/27 08:57:43;;;;;;;;;;;20.40;42.80;;;;;;5104472;28;19946;-60
2023/05/27 09:00:13;;;;;;;;;;;20.40;42.90;;;;;;5086822;28;19920;-60
2023/05/27 09:02:42;;;;;;;;;;;20.40;42.90;;;;;;5101238;28;20321;-59
2023/05/27 09:05:11;;;;;;;;;;;20.40;42.80;;;;;;5086873;28;19973;-59
2023/05/27 09:07:37;;;;;;;;;;;20.40;42.90;;;;;;5088181;28;19920;-58
2023/05/27 09:10:06;;;;;;;;;;;20.40;42.80;;;;;;5099607;28;20362;-59
2023/05/27 09:12:33;;;;;;;;;;;20.40;42.80;;;;;;5089527;28;19939;-58
2023/05/27 09:15:00;;;;;;;;;;;20.40;42.80;;;;;;5104197;28;19924;-58
2023/05/27 09:17:27;;;;;;;;;;;20.40;42.90;;;;;;5088374;28;19931;-58
2023/05/27 09:19:54;;;;;;;;;;;20.40;42.90;;;;;;5104994;28;19947;-59
2023/05/27 09:22:23;;;;;;;;;;;20.40;42.80;;;;;;5105826;28;20451;-59
2023/05/27 09:24:50;;;;;;;;;;;20.40;42.80;;;;;;5085921;28;19924;-59
2023/05/27 09:27:16;;;;;;;;;;;20.40;42.80;;;;;;5088202;28;19928;-59
2023/05/27 09:29:43;;;;;;;;;;;20.40;42.80;;;;;;5087283;28;19920;-59
2023/05/27 09:32:10;;;;;;;;;;;20.40;42.90;;;;;;5088246;28;20254;-59
2023/05/27 09:34:40;;;;;;;;;;;20.40;42.90;;;;;;5104563;28;19926;-58
2023/05/27 09:37:07;;;;;;;;;;;20.40;42.90;;;;;;5087394;28;19970;-59
2023/05/27 09:39:35;;;;;;;;;;;20.40;43.00;;;;;;5104979;28;19924;-59
2023/05/27 09:42:03;;;;;;;;;;;20.30;42.80;;;;;;5087685;28;19928;-59
2023/05/27 09:44:30;;;;;;;;;;;20.30;42.80;;;;;;5104510;28;19920;-58
2023/05/27 09:46:57;;;;;;;;;;;20.30;42.80;;;;;;5089306;28;19946;-59
2023/05/27 09:49:23;;;;;;;;;;;20.30;42.80;;;;;;5097748;28;19970;-59
2023/05/27 09:51:51;;;;;;;;;;;20.30;42.80;;;;;;5101319;28;19920;-59
2023/05/27 09:54:19;;;;;;;;;;;20.30;42.60;;;;;;5086676;28;19932;-59
2023/05/27 09:56:48;;;;;;;;;;;20.30;42.60;;;;;;5087374;28;20019;-59
2023/05/27 09:59:14;;;;;;;;;;;20.30;42.60;;;;;;5090481;28;19924;-59
2023/05/27 10:01:44;;;;;;;;;;;20.30;42.50;;;;;;5090933;28;19920;-59
2023/05/27 10:04:11;;;;;;;;;;;20.30;42.40;;;;;;5090941;28;19924;-59
2023/05/27 10:06:38;;;;;;;;;;;20.20;42.30;;;;;;5090686;28;19963;-59
2023/05/27 10:09:05;;;;;;;;;;;20.20;42.30;;;;;;5107761;28;19924;-59
2023/05/27 10:11:32;;;;;;;;;;;20.20;42.40;;;;;;5092407;28;19924;-59
2023/05/27 10:14:00;;;;;;;;;;;20.10;42.30;;;;;;5086324;28;19967;-59
2023/05/27 10:16:27;;;;;;;;;;;20.10;42.50;;;;;;5107349;28;19956;-59
2023/05/27 10:18:54;;;;;;;;;;;20.10;42.40;;;;;;5089724;28;19930;-59
2023/05/27 10:21:22;;;;;;;;;;;20.10;42.00;;;;;;5090506;28;19927;-59
2023/05/27 10:23:56;;;;;;;;;;;20.10;42.00;;;;;;5106691;28;20289;-59
2023/05/27 10:26:32;;;;;;;;;;;20.00;42.00;;;;;;5105694;28;20282;-59
2023/05/27 10:29:07;;;;;;;;;;;20.00;42.10;;;;;;5085990;28;19981;-60
2023/05/27 10:31:34;;;;;;;;;;;20.00;42.10;;;;;;5090630;28;19931;-58
2023/05/27 10:34:00;;;;;;;;;;;20.00;42.20;;;;;;5090348;28;19974;-59
2023/05/27 10:36:28;;;;;;;;;;;20.00;42.20;;;;;;5089719;28;20398;-59
2023/05/27 10:38:55;;;;;;;;;;;20.00;42.30;;;;;;5106662;28;19995;-59
2023/05/27 10:41:22;;;;;;;;;;;20.00;42.30;;;;;;5090149;28;19927;-59
2023/05/27 10:43:55;;;;;;;;;;;20.00;42.30;;;;;;5104358;28;19934;-59
2023/05/27 10:46:23;;;;;;;;;;;20.00;42.40;;;;;;5087273;28;19924;-58
2023/05/27 10:48:50;;;;;;;;;;;20.00;42.30;;;;;;5088674;28;19989;-58
2023/05/27 10:51:16;;;;;;;;;;;20.00;42.20;;;;;;5106899;28;19920;-58
2023/05/27 10:53:43;;;;;;;;;;;20.00;42.10;;;;;;5103683;28;19985;-58
2023/05/27 10:56:10;;;;;;;;;;;20.00;41.90;;;;;;5106730;28;20374;-59
2023/05/27 10:58:37;;;;;;;;;;;20.00;41.70;;;;;;5106906;28;19958;-59
2023/05/27 11:01:07;;;;;;;;;;;20.00;41.70;;;;;;5087627;28;19932;-59
2023/05/27 11:03:36;;;;;;;;;;;20.00;41.80;;;;;;5083286;28;19932;-57
2023/05/27 11:06:03;;;;;;;;;;;19.90;42.30;;;;;;5089584;28;19924;-58
2023/05/27 11:08:30;;;;;;;;;;;19.90;41.80;;;;;;5106817;28;19920;-58
2023/05/27 11:11:01;;;;;;;;;;;19.90;41.70;;;;;;5107256;28;19955;-58
2023/05/27 11:13:34;;;;;;;;;;;19.90;41.70;;;;;;5091903;28;19927;-58
2023/05/27 11:16:01;;;;;;;;;;;19.90;41.60;;;;;;5086774;28;20282;-58
2023/05/27 11:18:36;;;;;;;;;;;19.90;41.20;;;;;;5103892;28;20491;-58
2023/05/27 11:21:04;;;;;;;;;;;19.90;41.30;;;;;;5076612;28;19928;-58
2023/05/27 11:23:35;;;;;;;;;;;19.90;41.30;;;;;;5107449;28;19920;-58
2023/05/27 11:26:02;;;;;;;;;;;19.90;41.10;;;;;;5091412;28;19920;-58
2023/05/27 11:28:28;;;;;;;;;;;19.90;41.00;;;;;;5107231;28;19920;-58
2023/05/27 11:30:58;;;;;;;;;;;19.90;40.80;;;;;;5106411;28;19920;-58
2023/05/27 11:33:30;;;;;;;;;;;19.80;40.70;;;;;;5084194;28;19932;-58
2023/05/27 11:36:05;;;;;;;;;;;19.80;40.80;;;;;;5086025;28;19963;-58
2023/05/27 11:38:32;;;;;;;;;;;19.80;40.90;;;;;;5105742;28;19923;-59
2023/05/27 11:41:07;;;;;;;;;;;19.80;40.90;;;;;;5090786;28;19920;-58
2023/05/27 11:43:34;;;;;;;;;;;19.80;40.90;;;;;;5089971;28;19924;-58
2023/05/27 11:46:03;;;;;;;;;;;19.80;41.00;;;;;;5089360;28;20423;-59
2023/05/27 11:48:30;;;;;;;;;;;19.80;41.00;;;;;;5107021;28;19924;-58
2023/05/27 11:50:57;;;;;;;;;;;19.80;41.10;;;;;;5087362;28;19932;-58
2023/05/27 11:53:28;;;;;;;;;;;19.80;41.10;;;;;;5100276;28;19928;-58
2023/05/27 11:55:55;;;;;;;;;;;19.90;41.20;;;;;;5079814;28;19920;-59
2023/05/27 11:58:22;;;;;;;;;;;19.90;41.20;;;;;;5098606;28;20009;-59
2023/05/27 12:00:49;;;;;;;;;;;19.90;41.20;;;;;;5087134;28;19924;-57
2023/05/27 12:03:16;;;;;;;;;;;19.90;41.20;;;;;;5090175;28;19924;-58
2023/05/27 12:05:43;;;;;;;;;;;19.90;41.20;;;;;;5096901;28;19920;-57
2023/05/27 12:08:10;;;;;;;;;;;19.90;41.30;;;;;;5105867;28;19927;-58
2023/05/27 12:10:38;;;;;;;;;;;19.90;41.30;;;;;;5104339;27;19939;-58
2023/05/27 12:13:05;;;;;;;;;;;19.90;41.30;;;;;;5089598;28;19935;-58
2023/05/27 12:15:32;;;;;;;;;;;20.00;41.40;;;;;;5089322;28;19932;-59
2023/05/27 12:17:59;;;;;;;;;;;19.90;41.40;;;;;;5089053;28;19943;-59
2023/05/27 12:20:27;;;;;;;;;;;20.00;41.40;;;;;;5089434;28;19985;-59
2023/05/27 12:22:54;;;;;;;;;;;20.00;42.00;;;;;;5088991;28;19924;-58
2023/05/27 12:25:21;;;;;;;;;;;20.00;41.30;;;;;;5088238;28;19927;-59
2023/05/27 12:27:49;;;;;;;;;;;20.00;41.30;;;;;;5100332;28;19924;-59
2023/05/27 12:30:16;;;;;;;;;;;20.00;41.40;;;;;;5087943;28;20013;-59
2023/05/27 12:32:42;;;;;;;;;;;20.00;41.30;;;;;;5089005;28;19920;-58
2023/05/27 12:35:09;;;;;;;;;;;20.00;41.30;;;;;;5087981;28;19920;-58
2023/05/27 12:37:36;;;;;;;;;;;20.00;41.30;;;;;;5105064;28;19946;-59
2023/05/27 12:40:05;;;;;;;;;;;20.00;41.40;;;;;;5087571;28;19947;-58
2023/05/27 12:42:32;;;;;;;;;;;20.00;41.30;;;;;;5086244;28;20052;-58
2023/05/27 12:45:00;;;;;;;;;;;20.00;41.30;;;;;;5104225;28;20001;-58
2023/05/27 12:47:27;;;;;;;;;;;20.00;41.30;;;;;;5089012;28;19932;-58
2023/05/27 12:49:54;;;;;;;;;;;20.00;41.40;;;;;;5088855;28;19978;-58
2023/05/27 12:52:20;;;;;;;;;;;20.00;41.40;;;;;;5088708;28;19920;-58
2023/05/27 12:54:47;;;;;;;;;;;20.10;41.40;;;;;;5087108;28;19931;-58
2023/05/27 12:57:14;;;;;;;;;;;20.10;41.50;;;;;;5088574;28;19924;-58
2023/05/27 12:59:41;;;;;;;;;;;20.10;41.40;;;;;;5104192;28;20323;-58
2023/05/27 13:02:10;;;;;;;;;;;20.10;41.40;;;;;;5101278;28;19936;-58
2023/05/27 13:04:37;;;;;;;;;;;20.10;41.30;;;;;;5104485;28;20019;-58
2023/05/27 13:07:03;;;;;;;;;;;20.10;41.20;;;;;;5087334;28;19924;-59
2023/05/27 13:09:30;;;;;;;;;;;20.10;41.20;;;;;;5087069;28;19952;-59
2023/05/27 13:11:57;;;;;;;;;;;20.10;41.20;;;;;;5087232;28;19924;-58
2023/05/27 13:14:24;;;;;;;;;;;20.10;41.10;;;;;;5106220;28;19921;-59
2023/05/27 13:16:51;;;;;;;;;;;20.10;41.10;;;;;;5092991;28;19920;-58
2023/05/27 13:19:19;;;;;;;;;;;20.10;41.20;;;;;;5097381;28;20329;-59
2023/05/27 13:21:46;;;;;;;;;;;20.10;41.30;;;;;;5097010;28;19920;-59
2023/05/27 13:24:14;;;;;;;;;;;20.10;41.30;;;;;;5086296;28;19920;-59
2023/05/27 13:26:41;;;;;;;;;;;20.10;41.30;;;;;;5087524;28;19983;-59
2023/05/27 13:29:08;;;;;;;;;;;20.10;41.40;;;;;;5103608;28;19924;-58
2023/05/27 13:31:34;;;;;;;;;;;20.10;41.40;;;;;;5100464;28;19920;-59
2023/05/27 13:34:01;;;;;;;;;;;20.10;41.40;;;;;;5104885;28;19920;-59
2023/05/27 13:36:29;;;;;;;;;;;20.10;41.40;;;;;;5090515;28;19924;-59
2023/05/27 13:38:56;;;;;;;;;;;20.10;41.30;;;;;;5090287;28;19943;-59
2023/05/27 13:41:23;;;;;;;;;;;20.10;41.30;;;;;;5091607;28;19919;-59
2023/05/27 13:43:50;;;;;;;;;;;20.20;41.40;;;;;;5108198;28;19932;-59
2023/05/27 13:46:17;;;;;;;;;;;20.20;41.30;;;;;;5106195;28;20281;-59
2023/05/27 13:48:44;;;;;;;;;;;20.20;41.30;;;;;;5091530;28;19932;-59
2023/05/27 13:51:10;;;;;;;;;;;20.20;41.50;;;;;;5090982;28;19982;-59
2023/05/27 13:53:39;;;;;;;;;;;20.20;41.30;;;;;;5084589;28;19920;-60
2023/05/27 13:56:06;;;;;;;;;;;20.20;41.40;;;;;;5092791;28;20004;-59
2023/05/27 13:58:33;;;;;;;;;;;20.20;41.40;;;;;;5087474;28;19977;-59
2023/05/27 14:00:59;;;;;;;;;;;20.20;41.40;;;;;;5107225;28;19924;-59
2023/05/27 14:03:26;;;;;;;;;;;20.20;41.40;;;;;;5091235;28;19920;-58
2023/05/27 14:05:53;;;;;;;;;;;20.20;41.10;;;;;;5107607;28;19927;-58
2023/05/27 14:08:20;;;;;;;;;;;20.20;40.80;;;;;;5102548;28;19920;-58
2023/05/27 14:10:48;;;;;;;;;;;20.20;40.60;;;;;;5090670;28;19927;-58
2023/05/27 14:13:15;;;;;;;;;;;20.20;40.60;;;;;;5102908;28;19943;-58
2023/05/27 14:15:42;;;;;;;;;;;20.20;40.40;;;;;;5107369;28;20263;-58
2023/05/27 14:18:08;;;;;;;;;;;20.20;40.50;;;;;;5107491;28;20368;-59